首页
METAR-TAF:

METAR-TAF

机场 :

Illesheim, 德国

纬度: 49-28N, 经度: 010-23E, 海拔: 325米

当前天气观测

该预报发布于17分钟前的11:56 UTC
静风
温度 2°C
湿度 75%
气压 1012 hPa
能见度10公里或以上
散云层高于13000英尺

METAR: ETIK 111156Z AUTO 00000KT 9999 SCT130 02/M02 A2987 RMK AO2 SLP133 T00161018 10017 21012 57028 $

时间: 13:13 (12:13 UTC)

预报

该预报发布于5小时和13分钟前的07:00 UTC
预报有效从11日的 07点(UTC)到 12日的 13点(UTC)
风速9节,风向南转南东
能见度10公里或以上
少量云层高于1500英尺
阴天层高于17000英尺
成为
从 11日的 12点(UTC)到 11日的 13点(UTC)
风速6节,风向南转南东
能见度10公里或以上
散云层高于1500英尺
多云层高于6000英尺
成为
从 11日的 15点(UTC)到 11日的 16点(UTC)
风速9节,风向
能見度: 8000
散云层高于1000英尺
多云层高于1500英尺
小阵雨
成为
从 11日的 18点(UTC)到 11日的 19点(UTC)
风速10节,风向北转西北,有时为18节阵风
能見度: 8000
散云层高于600英尺
阴天层高于800英尺
小阵雨
成为
从 12日的 01点(UTC)到 12日的 02点(UTC)
风速9节,风向西转西南
能见度10公里或以上
阴天层高于800英尺
成为
从 12日的 06点(UTC)到 12日的 07点(UTC)
风速9节,风向南转西南
能见度10公里或以上
多云层高于1500英尺

TAF: ETIK 110700Z 1107/1213 16009KT 9999 FEW015 OVC170 QNH2980INS BECMG 1112/1113 15006KT 9999 SCT015 BKN060 QNH2977INS BECMG 1115/1116 19009KT 8000 -SHRA SCT010 BKN015 610208 QNH2975INS BECMG 1118/1119 34010G18KT 8000 -SHRA SCT006 OVC008 620109 QNH2972INS BECMG 1201/1202 25009KT 9999 NSW OVC008 620109 QNH2970INS BECMG 1206/1207 21009KT 9999 BKN015 620202 QNH2965INS TX04/1202Z TNM02/1107Z

超过4000个机场的气象观测和天气预报(METAR&TAF报告)。

可查询的气象台以黄色和红色小点在地图上表示。

将鼠标移到小点上方,可查看气象台名称。

然后点击查看天气观测和预报。

如需切换地图:点击带黑十字的绿色按钮放大地图;点击带横线的绿色按钮缩小地图;或者点击绿色箭头查看邻近地区的地图。


METAR-TAF: